Friday, June 22, 2018, 3:13 AM EDT
Back to Local

KHWV, Shirley Brookhaven Airport

Location: Shirley, NY, United States Lat: 40.817
Local Time: 3:13 AM EDT ( 7:13 GMT) Lon: -72.867
Time Zone: US/Eastern Elev: 82 ft

Show me the last for .
Show Decoded

2018-06-22 03:08 METAR KHWV 220708Z AUTO 00000KT 1SM BR OVC002 17/17 A2991 RMK AO2 T01720172 TSNO
                 =
2018-06-22 02:56 METAR KHWV 220656Z AUTO 02004KT 2 1/2SM BR OVC002 17/17 A2991 RMK AO2 SLP126
                 T01720172 TSNO =
2018-06-22 02:36 METAR KHWV 220636Z AUTO VRB03KT 8SM OVC002 17/17 A2991 RMK AO2 T01670167 TSNO =
2018-06-22 02:22 METAR KHWV 220622Z AUTO 00000KT 2 1/2SM BR OVC002 17/17 A2991 RMK AO2 T01720172
                 TSNO =
2018-06-22 01:56 METAR KHWV 220556Z AUTO 00000KT 1SM BR VV002 17/17 A2990 RMK AO2 SLP122
                 T01720172 10194 20167 51002 TSNO =
2018-06-22 01:53 METAR KHWV 220553Z AUTO 00000KT 3/4SM BR VV002 17/17 A2989 RMK AO2 TSNO =
2018-06-22 01:18 METAR KHWV 220518Z AUTO 00000KT 1 1/4SM BR OVC002 17/17 A2989 RMK AO2 T01670167
                 TSNO =
2018-06-22 01:09 METAR KHWV 220509Z AUTO VRB03KT 2 1/2SM BR OVC002 17/17 A2989 RMK AO2 T01670167
                 TSNO =
2018-06-22 00:56 METAR KHWV 220456Z AUTO VRB03KT 1 1/4SM BR OVC002 17/17 A2989 RMK AO2 SLP121
                 T01720172 402830167 TSNO =
2018-06-22 00:48 METAR KHWV 220448Z AUTO 00000KT 1 3/4SM BR OVC002 17/17 A2989 RMK AO2 T01720172
                 TSNO =
2018-06-22 00:38 METAR KHWV 220438Z AUTO VRB03KT 3SM BR OVC002 17/17 A2989 RMK AO2 T01670167 TSNO
                 =
2018-06-22 00:10 METAR KHWV 220410Z AUTO 00000KT 1SM BR VV002 17/17 A2989 RMK AO2 T01720172 TSNO
                 =
2018-06-21 23:56 METAR KHWV 220356Z AUTO 00000KT 3/4SM BR VV002 17/17 A2989 RMK AO2 SLP120
                 T01720172 TSNO =
2018-06-21 23:39 METAR KHWV 220339Z AUTO 10004KT 3/4SM BR VV002 17/17 A2989 RMK AO2 T01720172
                 TSNO =
2018-06-21 23:07 METAR KHWV 220307Z AUTO 14005KT 1 3/4SM BR OVC002 17/17 A2987 RMK AO2 T01720172
                 TSNO =
2018-06-21 22:56 METAR KHWV 220256Z AUTO 16005KT 5SM BR OVC002 18/18 A2987 RMK AO2 SLP115
                 T01780178 51023 TSNO =
2018-06-21 21:56 METAR KHWV 220156Z AUTO 14005KT 10SM OVC004 18/18 A2986 RMK AO2 SLP111 T01830183
                 TSNO =
2018-06-21 21:44 METAR KHWV 220144Z AUTO 15003KT 10SM BKN005 BKN070 18/18 A2986 RMK AO2 T01830183
                 TSNO =
2018-06-21 21:35 METAR KHWV 220135Z AUTO 13003KT 10SM SCT005 BKN070 18/18 A2985 RMK AO2 T01830183
                 TSNO =
2018-06-21 20:56 METAR KHWV 220056Z AUTO 00000KT 10SM CLR 18/18 A2983 RMK AO2 SLP100 T01830183
                 TSNO =
2018-06-21 20:05 METAR KHWV 220005Z AUTO 12003KT 10SM FEW003 19/19 A2981 RMK AO2 T01890189 TSNO =
2018-06-21 19:56 METAR KHWV 212356Z AUTO 11005KT 10SM CLR 19/19 A2981 RMK AO2 SLP092 T01940189
                 10283 20194 53016 TSNO =
2018-06-21 18:56 METAR KHWV 212256Z AUTO 15005KT 10SM CLR 22/19 A2979 RMK AO2 SLP087 T02170189
                 TSNO =
2018-06-21 17:56 METAR KHWV 212156Z AUTO 15007KT 10SM CLR 23/19 A2977 RMK AO2 SLP080 T02330194
                 TSNO =
2018-06-21 16:56 METAR KHWV 212056Z AUTO 16007KT 10SM CLR 25/19 A2976 RMK AO2 SLP076 T02500194
                 55003 TSNO =
2018-06-21 15:56 METAR KHWV 211956Z AUTO VRB03KT 10SM CLR 28/17 A2976 RMK AO2 SLP075 T02780167
                 TSNO =
2018-06-21 14:56 METAR KHWV 211856Z AUTO 03005KT 10SM SCT120 27/17 A2976 RMK AO2 SLP077 T02670172
                 TSNO =
2018-06-21 13:56 METAR KHWV 211756Z AUTO 35008KT 10SM FEW032 26/18 A2977 RMK AO2 SLP080 60000
                 T02610178 10261 20189 56005 TSNO =
2018-06-21 12:56 METAR KHWV 211656Z AUTO 36007KT 330V030 10SM FEW026 25/18 A2978 RMK AO2 SLP082
                 T02500183 TSNO =
2018-06-21 12:51 METAR KHWV 211651Z AUTO VRB06KT 10SM SCT026 25/18 A2977 RMK AO2 TSNO =
2018-06-21 12:38 METAR KHWV 211638Z AUTO 01008KT 10SM BKN026 24/18 A2978 RMK AO2 T02440183 TSNO =
2018-06-21 12:12 METAR KHWV 211612Z AUTO VRB04KT 10SM FEW017 SCT026 SCT033 24/19 A2979 RMK AO2
                 T02390194 TSNO =
2018-06-21 12:05 METAR KHWV 211605Z AUTO VRB04KT 10SM FEW015 SCT023 BKN028 24/19 A2978 RMK AO2
                 T02440194 TSNO =
2018-06-21 11:56 METAR KHWV 211556Z AUTO VRB03KT 10SM FEW013 SCT018 BKN031 24/20 A2978 RMK AO2
                 SLP085 T02390200 TSNO =
2018-06-21 11:51 METAR KHWV 211551Z AUTO 03004KT 10SM SCT015 BKN019 BKN028 23/19 A2979 RMK AO2
                 TSNO =
2018-06-21 10:56 METAR KHWV 211456Z AUTO VRB03KT 10SM BKN012 BKN060 BKN110 22/19 A2979 RMK AO2
                 SLP085 60000 T02170194 51008 TSNO =
2018-06-21 10:08 METAR KHWV 211408Z AUTO VRB03KT 10SM BKN011 BKN014 OVC055 21/19 A2978 RMK AO2
                 CIG 008V012 T02060194 TSNO =
2018-06-21 09:56 METAR KHWV 211356Z AUTO VRB05KT 10SM BKN009 OVC055 21/19 A2978 RMK AO2
                 RAE03B23E35 SLP083 P0000 T02060194 TSNO =
2018-06-21 08:56 METAR KHWV 211256Z AUTO 01003KT 10SM -RA OVC007 19/19 A2978 RMK AO2
                 RAB1158E23B31 CIG 006V011 SLP083 P0000 T01940189 TSNO =
2018-06-21 08:27 METAR KHWV 211227Z AUTO VRB03KT 10SM BKN006 OVC080 19/19 A2977 RMK AO2
                 RAB1158E23 P0000 T01940194 TSNO =
2018-06-21 08:11 METAR KHWV 211211Z AUTO 00000KT 10SM -RA FEW006 FEW060 OVC080 19/19 A2976 RMK
                 AO2 RAB1158 P0000 T01890189 TSNO =
2018-06-21 07:56 METAR KHWV 211156Z AUTO 00000KT 10SM FEW060 OVC080 19/19 A2976 RMK AO2
                 RAB1058E13B36E50 SLP077 P0001 60062 70064 T01890189 10200 20178 51005 TSNO =
2018-06-21 06:56 METAR KHWV 211056Z AUTO 00000KT 10SM OVC070 18/18 A2976 RMK AO2 RAB07E42 SLP077
                 P0000 T01830183 TSNO =
2018-06-21 05:56 METAR KHWV 210956Z AUTO 00000KT 10SM FEW004 BKN055 OVC080 18/18 A2976 RMK AO2
                 RAE14B19E46 SLP075 P0000 T01830183 TSNO =
2018-06-21 05:45 METAR KHWV 210945Z AUTO 00000KT 10SM -RA SCT004 BKN055 OVC080 18/18 A2976 RMK
                 AO2 RAE14B19 P0000 T01780178 TSNO =
2018-06-21 05:16 METAR KHWV 210916Z AUTO VRB03KT 10SM BKN004 BKN048 OVC065 18/18 A2975 RMK AO2
                 RAE14 P0000 T01780178 TSNO =
2018-06-21 04:56 METAR KHWV 210856Z AUTO 00000KT 7SM -RA FEW004 SCT045 OVC060 18/18 A2975 RMK AO2
                 SLP072 P0011 60061 T01830183 56011 TSNO =
2018-06-21 04:47 METAR KHWV 210847Z AUTO VRB03KT 6SM -RA BR SCT004 SCT043 OVC060 18/18 A2975 RMK
                 AO2 P0011 T01830183 TSNO =
2018-06-21 04:20 METAR KHWV 210820Z AUTO VRB04KT 4SM RA BR BKN006 BKN031 OVC042 18/18 A2976 RMK
                 AO2 P0008 T01830183 TSNO =
2018-06-21 04:11 METAR KHWV 210811Z AUTO 01004KT 4SM RA BR SCT006 BKN010 OVC031 18/18 A2976 RMK
                 AO2 P0006 T01830183 TSNO =
2018-06-21 04:04 METAR KHWV 210804Z AUTO 01004KT 3SM RA BR SCT006 BKN021 OVC031 18/18 A2976 RMK
                 AO2 P0003 T01830183 TSNO =
2018-06-21 03:56 METAR KHWV 210756Z AUTO VRB03KT 3SM +RA BR FEW005 BKN010 OVC029 18/18 A2976 RMK
                 AO2 SLP075 P0030 T01830183 TSNO =
2018-06-21 03:41 METAR KHWV 210741Z AUTO VRB03KT 2 1/2SM +RA BR BKN006 BKN010 OVC014 19/19 A2976
                 RMK AO2 P0022 T01940194 TSNO =
2018-06-21 03:34 METAR KHWV 210734Z AUTO 36003KT 3SM +RA BR BKN009 OVC012 19/19 A2976 RMK AO2
                 P0018 T01940194 TSNO =
2018-06-21 03:22 METAR KHWV 210722Z AUTO 00000KT 3SM +RA BR SCT007 BKN012 OVC041 19/19 A2976 RMK
                 AO2 P0012 T01940194 TSNO =

Support USWX by starting your Amazon purchase here.